createdAt,value
2023-03-04T00:00:00.429Z,4.20
2023-03-04T00:01:00.438Z,4.20
2023-03-04T00:02:00.961Z,4.20
2023-03-04T00:03:00.458Z,4.20
2023-03-04T00:04:00.447Z,4.20
2023-03-04T00:05:00.428Z,4.20
2023-03-04T00:06:00.433Z,4.20
2023-03-04T00:07:00.599Z,4.20
2023-03-04T00:08:00.469Z,4.20
2023-03-04T00:09:00.774Z,4.20
2023-03-04T00:10:00.509Z,4.20
2023-03-04T00:11:00.488Z,4.20
2023-03-04T00:12:00.456Z,4.20
2023-03-04T00:13:00.461Z,4.20
2023-03-04T00:14:00.468Z,2.90
2023-03-04T00:15:00.444Z,2.90
2023-03-04T00:16:00.551Z,2.90
2023-03-04T00:17:00.457Z,2.90
2023-03-04T00:18:00.458Z,2.90
2023-03-04T00:19:00.444Z,2.90
2023-03-04T00:20:00.473Z,2.90
2023-03-04T00:21:00.453Z,2.90
2023-03-04T00:22:00.537Z,2.90
2023-03-04T00:23:00.448Z,2.90
2023-03-04T00:24:00.431Z,2.90
2023-03-04T00:25:00.431Z,2.90
2023-03-04T00:26:00.430Z,2.90
2023-03-04T00:27:00.545Z,2.90
2023-03-04T00:28:00.443Z,2.90
2023-03-04T00:29:00.427Z,2.90
2023-03-04T00:30:00.445Z,2.90
2023-03-04T00:31:00.529Z,2.90
2023-03-04T00:32:00.606Z,2.90
2023-03-04T00:33:00.447Z,2.90
2023-03-04T00:34:00.425Z,2.90
2023-03-04T00:35:00.465Z,2.90
2023-03-04T00:36:00.537Z,2.90
2023-03-04T00:37:00.482Z,2.90
2023-03-04T00:38:00.490Z,2.90
2023-03-04T00:39:00.423Z,2.90
2023-03-04T00:40:00.448Z,2.90
2023-03-04T00:41:00.463Z,2.90
2023-03-04T00:42:00.479Z,2.90
2023-03-04T00:43:00.438Z,2.90
2023-03-04T00:44:00.457Z,2.50
2023-03-04T00:45:00.447Z,2.50
2023-03-04T00:46:00.515Z,2.50
2023-03-04T00:47:00.423Z,2.50
2023-03-04T00:48:00.626Z,2.50
2023-03-04T00:49:00.493Z,2.50
2023-03-04T00:50:00.921Z,2.50
2023-03-04T00:51:00.420Z,2.50
2023-03-04T00:52:00.423Z,2.50
2023-03-04T00:53:00.457Z,2.50
2023-03-04T00:54:00.990Z,2.50
2023-03-04T00:55:00.481Z,2.50
2023-03-04T00:56:00.460Z,2.50
2023-03-04T00:57:00.428Z,2.50
2023-03-04T00:58:00.445Z,2.50
2023-03-04T00:59:00.431Z,2.50
2023-03-04T01:00:00.506Z,2.50
2023-03-04T01:01:00.471Z,2.50
2023-03-04T01:02:00.618Z,2.50
2023-03-04T01:03:00.488Z,2.50
2023-03-04T01:04:00.427Z,2.50
2023-03-04T01:05:00.420Z,2.50
2023-03-04T01:06:00.421Z,2.50
2023-03-04T01:07:00.428Z,2.50
2023-03-04T01:08:00.935Z,2.50
2023-03-04T01:09:00.431Z,2.50
2023-03-04T01:10:00.445Z,2.50
2023-03-04T01:11:00.459Z,2.50
2023-03-04T01:12:00.485Z,2.50
2023-03-04T01:13:00.467Z,2.50
2023-03-04T01:14:00.665Z,2.90
2023-03-04T01:15:00.609Z,2.90
2023-03-04T01:16:00.467Z,2.90
2023-03-04T01:17:00.516Z,2.90
2023-03-04T01:18:00.526Z,2.90
2023-03-04T01:19:00.456Z,2.90
2023-03-04T01:20:00.470Z,2.90
2023-03-04T01:21:00.441Z,2.90
2023-03-04T01:22:00.451Z,2.90
2023-03-04T01:23:00.444Z,2.90
2023-03-04T01:24:00.430Z,2.90
2023-03-04T01:25:00.440Z,2.90
2023-03-04T01:26:00.442Z,2.90
2023-03-04T01:27:00.424Z,2.90
2023-03-04T01:28:00.437Z,2.90
2023-03-04T01:29:00.421Z,2.90
2023-03-04T01:30:00.454Z,2.90
2023-03-04T01:31:01.115Z,2.90
2023-03-04T01:32:00.485Z,2.90
2023-03-04T01:33:00.460Z,2.90
2023-03-04T01:34:00.469Z,2.90
2023-03-04T01:35:00.428Z,2.90
2023-03-04T01:36:00.440Z,2.90
2023-03-04T01:37:00.626Z,2.90
2023-03-04T01:38:00.469Z,2.90
2023-03-04T01:39:00.416Z,2.90
2023-03-04T01:40:00.439Z,2.90
2023-03-04T01:41:00.493Z,2.90
2023-03-04T01:42:00.506Z,2.90
2023-03-04T01:43:00.474Z,2.90
2023-03-04T01:44:00.951Z,3.40
2023-03-04T01:45:00.664Z,3.40
2023-03-04T01:46:00.519Z,3.40
2023-03-04T01:47:00.455Z,3.40
2023-03-04T01:48:00.564Z,3.40
2023-03-04T01:49:00.470Z,3.40
2023-03-04T01:50:02.317Z,3.40
2023-03-04T01:51:00.436Z,3.40
2023-03-04T01:52:00.453Z,3.40
2023-03-04T01:53:00.893Z,3.40
2023-03-04T01:54:00.435Z,3.40
2023-03-04T01:55:00.463Z,3.40
2023-03-04T01:56:02.195Z,3.40
2023-03-04T01:57:00.635Z,3.40
2023-03-04T01:58:00.451Z,3.40
2023-03-04T01:59:10.024Z,3.40
2023-03-04T02:00:10.343Z,3.40
2023-03-04T02:01:00.434Z,3.40
2023-03-04T02:02:00.895Z,3.40
2023-03-04T02:03:03.251Z,3.40
2023-03-04T02:04:00.634Z,3.40
2023-03-04T02:05:00.445Z,3.40
2023-03-04T02:06:00.450Z,3.40
2023-03-04T02:07:01.351Z,3.40
2023-03-04T02:08:02.061Z,3.40
2023-03-04T02:09:00.617Z,3.40
2023-03-04T02:10:00.736Z,3.40
2023-03-04T02:11:00.493Z,3.40
2023-03-04T02:12:00.830Z,3.40
2023-03-04T02:13:00.786Z,3.40
2023-03-04T02:14:00.450Z,3.70
2023-03-04T02:15:00.493Z,3.70
2023-03-04T02:16:00.550Z,3.70
2023-03-04T02:17:00.458Z,3.70
2023-03-04T02:18:00.532Z,3.70
2023-03-04T02:19:00.954Z,3.70
2023-03-04T02:20:06.115Z,3.70
2023-03-04T02:21:10.353Z,3.70
2023-03-04T02:22:00.471Z,3.70
2023-03-04T02:23:08.030Z,3.70
2023-03-04T02:24:01.450Z,3.70
2023-03-04T02:25:06.146Z,3.70
2023-03-04T02:26:10.365Z,3.70
2023-03-04T02:27:00.799Z,3.70
2023-03-04T02:28:00.772Z,3.70
2023-03-04T02:29:01.124Z,3.70
2023-03-04T02:30:01.254Z,3.70
2023-03-04T02:31:00.927Z,3.70
2023-03-04T02:32:00.831Z,3.70
2023-03-04T02:33:00.668Z,3.70
2023-03-04T02:34:02.218Z,3.70
2023-03-04T02:35:01.076Z,3.70
2023-03-04T02:36:00.473Z,3.70
2023-03-04T02:37:01.087Z,3.70
2023-03-04T02:38:00.448Z,3.70
2023-03-04T02:39:03.134Z,3.70
2023-03-04T02:40:02.999Z,3.70
2023-03-04T02:41:01.830Z,3.70
2023-03-04T02:42:01.225Z,3.70
2023-03-04T02:43:00.729Z,3.70
2023-03-04T02:44:00.480Z,4.40
2023-03-04T02:45:00.912Z,4.40
2023-03-04T02:46:00.459Z,4.40
2023-03-04T02:47:01.311Z,4.40
2023-03-04T02:48:00.481Z,4.40
2023-03-04T02:49:00.448Z,4.40
2023-03-04T02:50:00.527Z,4.40
2023-03-04T02:51:01.162Z,4.40
2023-03-04T02:52:03.698Z,4.40
2023-03-04T02:53:00.518Z,4.40
2023-03-04T02:54:00.446Z,4.40
2023-03-04T02:55:00.440Z,4.40
2023-03-04T02:56:00.648Z,4.40
2023-03-04T02:57:01.732Z,4.40
2023-03-04T02:58:00.503Z,4.40
2023-03-04T02:59:00.490Z,4.40
2023-03-04T03:00:00.448Z,4.40
2023-03-04T03:01:00.491Z,4.40
2023-03-04T03:02:00.559Z,4.40
2023-03-04T03:03:00.546Z,4.40
2023-03-04T03:04:00.436Z,4.40
2023-03-04T03:05:00.579Z,4.40
2023-03-04T03:06:00.539Z,4.40
2023-03-04T03:07:00.449Z,4.40
2023-03-04T03:08:00.480Z,4.40
2023-03-04T03:09:00.754Z,4.40
2023-03-04T03:10:00.755Z,4.40
2023-03-04T03:11:00.455Z,4.40
2023-03-04T03:12:00.466Z,4.40
2023-03-04T03:13:00.532Z,4.40
2023-03-04T03:14:00.531Z,3.60
2023-03-04T03:15:00.445Z,3.60
2023-03-04T03:16:00.479Z,3.60
2023-03-04T03:17:00.497Z,3.60
2023-03-04T03:18:00.461Z,3.60
2023-03-04T03:19:00.681Z,3.60
2023-03-04T03:20:00.572Z,3.60
2023-03-04T03:21:00.482Z,3.60
2023-03-04T03:22:00.573Z,3.60
2023-03-04T03:23:00.431Z,3.60
2023-03-04T03:24:00.516Z,3.60
2023-03-04T03:25:00.450Z,3.60
2023-03-04T03:26:00.688Z,3.60
2023-03-04T03:27:00.464Z,3.60
2023-03-04T03:28:00.477Z,3.60
2023-03-04T03:29:00.441Z,3.60
2023-03-04T03:30:00.466Z,3.60
2023-03-04T03:31:00.548Z,3.60
2023-03-04T03:32:00.527Z,3.60
2023-03-04T03:33:00.464Z,3.60
2023-03-04T03:34:00.472Z,3.60
2023-03-04T03:35:00.563Z,3.60
2023-03-04T03:36:00.611Z,3.60
2023-03-04T03:37:00.614Z,3.60
2023-03-04T03:38:00.455Z,3.60
2023-03-04T03:39:00.455Z,3.60
2023-03-04T03:40:00.526Z,3.60
2023-03-04T03:41:00.537Z,3.60
2023-03-04T03:42:00.493Z,3.60
2023-03-04T03:43:00.469Z,3.60
2023-03-04T03:44:00.490Z,3.80
2023-03-04T03:45:00.474Z,3.80
2023-03-04T03:46:00.552Z,3.80
2023-03-04T03:47:01.063Z,3.80
2023-03-04T03:48:00.468Z,3.80
2023-03-04T03:49:00.570Z,3.80
2023-03-04T03:50:00.457Z,3.80
2023-03-04T03:51:00.558Z,3.80
2023-03-04T03:52:00.536Z,3.80
2023-03-04T03:53:00.490Z,3.80
2023-03-04T03:54:00.472Z,3.80
2023-03-04T03:55:01.803Z,3.80
2023-03-04T03:56:00.445Z,3.80
2023-03-04T03:57:00.509Z,3.80
2023-03-04T03:58:00.478Z,3.80
2023-03-04T03:59:00.449Z,3.80
2023-03-04T04:00:00.535Z,3.80
2023-03-04T04:01:00.454Z,3.80
2023-03-04T04:02:00.573Z,3.80
2023-03-04T04:03:00.892Z,3.80
2023-03-04T04:04:00.441Z,3.80
2023-03-04T04:05:00.515Z,3.80
2023-03-04T04:06:00.491Z,3.80
2023-03-04T04:07:00.636Z,3.80
2023-03-04T04:08:00.465Z,3.80
2023-03-04T04:09:00.462Z,3.80
2023-03-04T04:10:00.451Z,3.80
2023-03-04T04:11:00.463Z,3.80
2023-03-04T04:12:00.444Z,3.80
2023-03-04T04:13:00.455Z,3.80
2023-03-04T04:14:00.458Z,4.60
2023-03-04T04:15:00.460Z,4.60
2023-03-04T04:16:00.476Z,4.60
2023-03-04T04:17:00.480Z,4.60
2023-03-04T04:18:00.494Z,4.60
2023-03-04T04:19:00.447Z,4.60
2023-03-04T04:20:00.452Z,4.60
2023-03-04T04:21:00.460Z,4.60
2023-03-04T04:22:00.744Z,4.60
2023-03-04T04:23:00.474Z,4.60
2023-03-04T04:24:00.454Z,4.60
2023-03-04T04:25:00.533Z,4.60
2023-03-04T04:26:00.477Z,4.60
2023-03-04T04:27:00.510Z,4.60
2023-03-04T04:28:00.462Z,4.60
2023-03-04T04:29:00.491Z,4.60
2023-03-04T04:30:00.454Z,4.60
2023-03-04T04:31:00.623Z,4.60
2023-03-04T04:32:00.520Z,4.60
2023-03-04T04:33:00.464Z,4.60
2023-03-04T04:34:00.463Z,4.60
2023-03-04T04:35:00.451Z,4.60
2023-03-04T04:36:00.517Z,4.60
2023-03-04T04:37:00.432Z,4.60
2023-03-04T04:38:00.431Z,4.60
2023-03-04T04:39:00.441Z,4.60
2023-03-04T04:40:00.634Z,4.60
2023-03-04T04:41:00.427Z,4.60
2023-03-04T04:42:00.452Z,4.60
2023-03-04T04:43:00.624Z,4.60
2023-03-04T04:44:00.496Z,6.80
2023-03-04T04:45:00.440Z,6.80
2023-03-04T04:46:00.499Z,6.80
2023-03-04T04:47:00.433Z,6.80
2023-03-04T04:48:00.459Z,6.80
2023-03-04T04:49:00.752Z,6.80
2023-03-04T04:50:00.486Z,6.80
2023-03-04T04:51:00.469Z,6.80
2023-03-04T04:52:00.422Z,6.80
2023-03-04T04:53:00.460Z,6.80
2023-03-04T04:54:00.534Z,6.80
2023-03-04T04:55:00.449Z,6.80
2023-03-04T04:56:07.101Z,6.80
2023-03-04T04:57:00.423Z,6.80
2023-03-04T04:58:00.423Z,6.80
2023-03-04T04:59:01.398Z,6.80
2023-03-04T05:00:00.583Z,6.80
2023-03-04T05:01:00.478Z,6.80
2023-03-04T05:02:00.465Z,6.80
2023-03-04T05:03:00.485Z,6.80
2023-03-04T05:04:00.485Z,6.80
2023-03-04T05:05:00.480Z,6.80
2023-03-04T05:06:00.481Z,6.80
2023-03-04T05:07:00.478Z,6.80
2023-03-04T05:08:00.432Z,6.80
2023-03-04T05:09:00.490Z,6.80
2023-03-04T05:10:00.456Z,6.80
2023-03-04T05:11:01.092Z,6.80
2023-03-04T05:12:00.451Z,6.80
2023-03-04T05:13:00.444Z,6.80
2023-03-04T05:14:00.731Z,4.50
2023-03-04T05:15:00.454Z,4.50
2023-03-04T05:16:00.665Z,4.50
2023-03-04T05:17:00.448Z,4.50
2023-03-04T05:18:00.479Z,4.50
2023-03-04T05:19:00.445Z,4.50
2023-03-04T05:20:00.464Z,4.50
2023-03-04T05:21:01.505Z,4.50
2023-03-04T05:22:00.446Z,4.50
2023-03-04T05:23:00.540Z,4.50
2023-03-04T05:24:00.456Z,4.50
2023-03-04T05:25:00.552Z,4.50
2023-03-04T05:26:00.689Z,4.50
2023-03-04T05:27:00.926Z,4.50
2023-03-04T05:28:00.432Z,4.50
2023-03-04T05:29:00.480Z,4.50
2023-03-04T05:30:00.462Z,4.50
2023-03-04T05:31:00.971Z,4.50
2023-03-04T05:32:00.484Z,4.50
2023-03-04T05:33:00.437Z,4.50
2023-03-04T05:34:00.439Z,4.50
2023-03-04T05:35:00.443Z,4.50
2023-03-04T05:36:01.225Z,4.50
2023-03-04T05:37:00.434Z,4.50
2023-03-04T05:38:00.741Z,4.50
2023-03-04T05:39:00.458Z,4.50
2023-03-04T05:40:00.460Z,4.50
2023-03-04T05:41:01.885Z,4.50
2023-03-04T05:42:00.440Z,4.50
2023-03-04T05:43:00.509Z,4.50
2023-03-04T05:44:00.477Z,4.10
2023-03-04T05:45:00.444Z,4.10
2023-03-04T05:46:01.593Z,4.10
2023-03-04T05:47:00.439Z,4.10
2023-03-04T05:48:00.444Z,4.10
2023-03-04T05:49:00.452Z,4.10
2023-03-04T05:50:00.425Z,4.10
2023-03-04T05:51:00.660Z,4.10
2023-03-04T05:52:00.472Z,4.10
2023-03-04T05:53:00.500Z,4.10
2023-03-04T05:54:00.472Z,4.10
2023-03-04T05:55:00.430Z,4.10
2023-03-04T05:56:05.166Z,4.10
2023-03-04T05:57:00.444Z,4.10
2023-03-04T05:58:00.462Z,4.10
2023-03-04T05:59:00.429Z,4.10
2023-03-04T06:00:00.562Z,4.10
2023-03-04T06:01:00.836Z,4.10
2023-03-04T06:02:00.425Z,4.10
2023-03-04T06:03:00.508Z,4.10
2023-03-04T06:04:00.566Z,4.10
2023-03-04T06:05:00.466Z,4.10
2023-03-04T06:06:00.436Z,4.10
2023-03-04T06:07:00.455Z,4.10
2023-03-04T06:08:00.418Z,4.10
2023-03-04T06:09:00.440Z,4.10
2023-03-04T06:10:00.480Z,4.10
2023-03-04T06:11:00.445Z,4.10
2023-03-04T06:12:00.437Z,4.10
2023-03-04T06:13:00.420Z,4.10
2023-03-04T06:14:00.536Z,5.90
2023-03-04T06:15:00.468Z,5.90
2023-03-04T06:16:00.809Z,5.90
2023-03-04T06:17:00.442Z,5.90
2023-03-04T06:18:00.462Z,5.90
2023-03-04T06:19:00.422Z,5.90
2023-03-04T06:20:00.440Z,5.90
2023-03-04T06:21:01.080Z,5.90
2023-03-04T06:22:00.442Z,5.90
2023-03-04T06:23:00.434Z,5.90
2023-03-04T06:24:00.519Z,5.90
2023-03-04T06:25:00.555Z,5.90
2023-03-04T06:26:00.552Z,5.90
2023-03-04T06:27:00.575Z,5.90
2023-03-04T06:28:00.434Z,5.90
2023-03-04T06:29:00.463Z,5.90
2023-03-04T06:30:00.530Z,5.90
2023-03-04T06:31:00.426Z,5.90
2023-03-04T06:32:00.518Z,5.90
2023-03-04T06:33:00.448Z,5.90
2023-03-04T06:34:00.426Z,5.90
2023-03-04T06:35:00.435Z,5.90
2023-03-04T06:36:00.541Z,5.90
2023-03-04T06:37:00.523Z,5.90
2023-03-04T06:38:00.427Z,5.90
2023-03-04T06:39:02.772Z,5.90
2023-03-04T06:40:00.442Z,5.90
2023-03-04T06:41:09.216Z,5.90
2023-03-04T06:42:00.421Z,5.90
2023-03-04T06:43:00.484Z,5.90
2023-03-04T06:44:00.854Z,6.60
2023-03-04T06:45:00.766Z,6.60
2023-03-04T06:46:00.428Z,6.60
2023-03-04T06:47:00.544Z,6.60
2023-03-04T06:48:00.459Z,6.60
2023-03-04T06:49:00.465Z,6.60
2023-03-04T06:50:00.552Z,6.60
2023-03-04T06:51:04.820Z,6.60
2023-03-04T06:52:00.496Z,6.60
2023-03-04T06:53:00.618Z,6.60
2023-03-04T06:54:00.619Z,6.60
2023-03-04T06:55:00.600Z,6.60
2023-03-04T06:56:00.452Z,6.60
2023-03-04T06:57:00.426Z,6.60
2023-03-04T06:58:00.460Z,6.60
2023-03-04T06:59:00.437Z,6.60
2023-03-04T07:00:00.439Z,6.60
2023-03-04T07:01:11.234Z,6.60
2023-03-04T07:02:00.432Z,6.60
2023-03-04T07:03:00.485Z,6.60
2023-03-04T07:04:01.123Z,6.60
2023-03-04T07:05:00.442Z,6.60
2023-03-04T07:06:00.501Z,6.60
2023-03-04T07:07:00.452Z,6.60
2023-03-04T07:08:00.439Z,6.60
2023-03-04T07:09:00.434Z,6.60
2023-03-04T07:10:00.435Z,6.60
2023-03-04T07:11:00.422Z,6.60
2023-03-04T07:12:00.477Z,6.60
2023-03-04T07:13:00.857Z,6.60
2023-03-04T07:14:00.439Z,6.60
2023-03-04T07:15:00.434Z,6.60
2023-03-04T07:16:00.826Z,6.60
2023-03-04T07:17:00.545Z,6.60
2023-03-04T07:18:00.466Z,6.60
2023-03-04T07:19:00.878Z,6.60
2023-03-04T07:20:00.719Z,6.60
2023-03-04T07:21:00.588Z,6.60
2023-03-04T07:22:00.474Z,6.60
2023-03-04T07:23:00.466Z,6.60
2023-03-04T07:24:00.645Z,6.60
2023-03-04T07:25:00.446Z,6.60
2023-03-04T07:26:00.648Z,6.60
2023-03-04T07:27:00.463Z,6.60
2023-03-04T07:28:00.475Z,6.60
2023-03-04T07:29:00.443Z,6.60
2023-03-04T07:30:00.504Z,6.60
2023-03-04T07:31:10.350Z,6.60
2023-03-04T07:32:00.590Z,6.60
2023-03-04T07:33:00.424Z,6.60
2023-03-04T07:34:04.787Z,6.60
2023-03-04T07:35:01.011Z,6.60
2023-03-04T07:36:00.435Z,6.60
2023-03-04T07:37:00.450Z,6.60
2023-03-04T07:38:00.430Z,6.60
2023-03-04T07:39:01.004Z,6.60
2023-03-04T07:40:00.450Z,6.60
2023-03-04T07:41:00.465Z,6.60
2023-03-04T07:42:00.419Z,6.60
2023-03-04T07:43:00.458Z,6.60
2023-03-04T07:44:00.798Z,5.90
2023-03-04T07:45:00.469Z,5.90
2023-03-04T07:46:01.070Z,5.90
2023-03-04T07:47:00.430Z,5.90
2023-03-04T07:48:00.434Z,5.90
2023-03-04T07:49:00.429Z,5.90
2023-03-04T07:50:00.476Z,5.90
2023-03-04T07:51:10.370Z,5.90
2023-03-04T07:52:02.489Z,5.90
2023-03-04T07:53:00.422Z,5.90
2023-03-04T07:54:00.537Z,5.90
2023-03-04T07:55:00.445Z,5.90
2023-03-04T07:56:02.546Z,5.90
2023-03-04T07:57:00.440Z,5.90
2023-03-04T07:58:00.428Z,5.90
2023-03-04T07:59:00.753Z,5.90
2023-03-04T08:00:00.436Z,5.90
2023-03-04T08:01:00.476Z,5.90
2023-03-04T08:02:00.424Z,5.90
2023-03-04T08:03:00.470Z,5.90
2023-03-04T08:04:01.073Z,5.90
2023-03-04T08:05:00.463Z,5.90
2023-03-04T08:06:03.082Z,5.90
2023-03-04T08:07:00.549Z,5.90
2023-03-04T08:08:00.428Z,5.90
2023-03-04T08:09:03.267Z,5.90
2023-03-04T08:10:00.581Z,5.90
2023-03-04T08:11:03.362Z,5.90
2023-03-04T08:12:00.577Z,5.90
2023-03-04T08:13:00.694Z,5.90
2023-03-04T08:14:00.607Z,5.60
2023-03-04T08:15:00.450Z,5.60
2023-03-04T08:16:00.951Z,5.60
2023-03-04T08:17:00.430Z,5.60
2023-03-04T08:18:00.796Z,5.60
2023-03-04T08:19:01.106Z,5.60
2023-03-04T08:20:00.435Z,5.60
2023-03-04T08:21:00.442Z,5.60
2023-03-04T08:22:00.611Z,5.60
2023-03-04T08:23:00.518Z,5.60
2023-03-04T08:24:01.449Z,5.60
2023-03-04T08:25:00.424Z,5.60
2023-03-04T08:26:04.339Z,5.60
2023-03-04T08:27:00.456Z,5.60
2023-03-04T08:28:00.432Z,5.60
2023-03-04T08:29:01.366Z,5.60
2023-03-04T08:30:00.421Z,5.60
2023-03-04T08:31:00.528Z,5.60
2023-03-04T08:32:00.812Z,5.60
2023-03-04T08:33:00.845Z,5.60
2023-03-04T08:34:02.062Z,5.60
2023-03-04T08:35:00.419Z,5.60
2023-03-04T08:36:00.431Z,5.60
2023-03-04T08:37:00.427Z,5.60
2023-03-04T08:38:02.411Z,5.60
2023-03-04T08:39:01.113Z,5.60
2023-03-04T08:40:00.445Z,5.60
2023-03-04T08:41:00.447Z,5.60
2023-03-04T08:42:00.578Z,5.60
2023-03-04T08:43:00.431Z,5.60
2023-03-04T08:44:00.501Z,4.20
2023-03-04T08:45:00.432Z,4.20
2023-03-04T08:46:00.797Z,4.20
2023-03-04T08:47:00.428Z,4.20
2023-03-04T08:48:00.801Z,4.20
2023-03-04T08:49:00.484Z,4.20
2023-03-04T08:50:00.428Z,4.20
2023-03-04T08:51:00.537Z,4.20
2023-03-04T08:52:00.568Z,4.20
2023-03-04T08:53:00.455Z,4.20
2023-03-04T08:54:01.108Z,4.20
2023-03-04T08:55:00.512Z,4.20
2023-03-04T08:56:00.526Z,4.20
2023-03-04T08:57:00.437Z,4.20
2023-03-04T08:58:00.424Z,4.20
2023-03-04T08:59:00.418Z,4.20
2023-03-04T09:00:00.464Z,4.20
2023-03-04T09:01:00.793Z,4.20
2023-03-04T09:02:00.540Z,4.20
2023-03-04T09:03:00.502Z,4.20
2023-03-04T09:04:00.478Z,4.20
2023-03-04T09:05:00.436Z,4.20
2023-03-04T09:06:01.253Z,4.20
2023-03-04T09:07:00.423Z,4.20
2023-03-04T09:08:00.778Z,4.20
2023-03-04T09:09:00.718Z,4.20
2023-03-04T09:10:00.423Z,4.20
2023-03-04T09:11:00.640Z,4.20
2023-03-04T09:12:00.496Z,4.20
2023-03-04T09:13:00.444Z,4.20
2023-03-04T09:14:00.493Z,4.50
2023-03-04T09:15:10.750Z,4.50
2023-03-04T09:16:00.636Z,4.50
2023-03-04T09:17:01.205Z,4.50
2023-03-04T09:18:01.194Z,4.50
2023-03-04T09:19:00.454Z,4.50
2023-03-04T09:20:03.068Z,4.50
2023-03-04T09:21:00.435Z,4.50
2023-03-04T09:22:00.441Z,4.50
2023-03-04T09:23:00.459Z,4.50
2023-03-04T09:24:00.475Z,4.50
2023-03-04T09:25:00.447Z,4.50
2023-03-04T09:26:00.589Z,4.50
2023-03-04T09:27:00.419Z,4.50
2023-03-04T09:28:00.440Z,4.50
2023-03-04T09:29:00.970Z,4.50
2023-03-04T09:30:00.431Z,4.50
2023-03-04T09:31:00.456Z,4.50
2023-03-04T09:32:00.519Z,4.50
2023-03-04T09:33:00.722Z,4.50
2023-03-04T09:34:00.473Z,4.50
2023-03-04T09:35:00.497Z,4.50
2023-03-04T09:36:00.584Z,4.50
2023-03-04T09:37:00.532Z,4.50
2023-03-04T09:38:00.458Z,4.50
2023-03-04T09:39:01.264Z,4.50
2023-03-04T09:40:00.744Z,4.50
2023-03-04T09:41:03.647Z,4.50
2023-03-04T09:42:01.295Z,4.50
2023-03-04T09:43:02.080Z,4.50
2023-03-04T09:44:04.073Z,4.30
2023-03-04T09:45:01.236Z,4.30
2023-03-04T09:46:02.332Z,4.30
2023-03-04T09:47:02.208Z,4.30
2023-03-04T09:48:00.851Z,4.30
2023-03-04T09:49:00.452Z,4.30
2023-03-04T09:50:02.374Z,4.30
2023-03-04T09:51:10.135Z,4.30
2023-03-04T09:52:03.905Z,4.30
2023-03-04T09:53:00.412Z,4.30
2023-03-04T09:54:09.357Z,4.30
2023-03-04T09:55:10.337Z,4.30
2023-03-04T09:56:01.721Z,4.30
2023-03-04T09:57:10.343Z,4.30
2023-03-04T09:58:10.349Z,4.30
2023-03-04T09:59:10.350Z,4.30
2023-03-04T10:00:10.347Z,4.30
2023-03-04T10:01:05.237Z,4.30
2023-03-04T10:02:10.348Z,4.30
2023-03-04T10:03:05.779Z,4.30
2023-03-04T10:04:00.429Z,4.30
2023-03-04T10:05:02.312Z,4.30
2023-03-04T10:06:03.933Z,4.30
2023-03-04T10:07:02.424Z,4.30
2023-03-04T10:08:10.341Z,4.30
2023-03-04T10:09:03.107Z,4.30
2023-03-04T10:10:03.421Z,4.30
2023-03-04T10:11:02.121Z,4.30
2023-03-04T10:12:04.107Z,4.30
2023-03-04T10:13:01.890Z,4.30
2023-03-04T10:14:03.824Z,3.60
2023-03-04T10:15:03.648Z,3.60
2023-03-04T10:16:01.204Z,3.60
2023-03-04T10:17:10.342Z,3.60
2023-03-04T10:18:03.926Z,3.60
2023-03-04T10:19:07.279Z,3.60
2023-03-04T10:20:03.975Z,3.60
2023-03-04T10:21:03.260Z,3.60
2023-03-04T10:22:00.775Z,3.60
2023-03-04T10:23:07.718Z,3.60
2023-03-04T10:24:04.461Z,3.60
2023-03-04T10:25:07.311Z,3.60
2023-03-04T10:26:10.059Z,3.60
2023-03-04T10:27:04.227Z,3.60
2023-03-04T10:28:03.704Z,3.60
2023-03-04T10:29:00.439Z,3.60
2023-03-04T10:30:00.519Z,3.60
2023-03-04T10:31:05.327Z,3.60
2023-03-04T10:32:00.612Z,3.60
2023-03-04T10:33:00.596Z,3.60
2023-03-04T10:34:00.451Z,3.60
2023-03-04T10:35:00.446Z,3.60
2023-03-04T10:36:00.708Z,3.60
2023-03-04T10:37:01.446Z,3.60
2023-03-04T10:38:02.387Z,3.60
2023-03-04T10:39:10.333Z,3.60
2023-03-04T10:40:00.418Z,3.60
2023-03-04T10:41:00.832Z,3.60
2023-03-04T10:42:05.152Z,3.60
2023-03-04T10:43:00.410Z,3.60
2023-03-04T10:44:02.204Z,3.30
2023-03-04T10:45:00.409Z,3.30
2023-03-04T10:46:00.478Z,3.30
2023-03-04T10:47:00.770Z,3.30
2023-03-04T10:48:00.417Z,3.30
2023-03-04T10:49:00.420Z,3.30
2023-03-04T10:50:02.128Z,3.30
2023-03-04T10:51:10.332Z,3.30
2023-03-04T10:52:02.197Z,3.30
2023-03-04T10:53:00.462Z,3.30
2023-03-04T10:54:06.834Z,3.30
2023-03-04T10:55:03.059Z,3.30
2023-03-04T10:56:00.483Z,3.30
2023-03-04T10:57:02.316Z,3.30
2023-03-04T10:58:02.999Z,3.30
2023-03-04T10:59:10.320Z,3.30
2023-03-04T11:00:01.753Z,3.30
2023-03-04T11:01:02.378Z,3.30
2023-03-04T11:02:01.497Z,3.30
2023-03-04T11:03:10.330Z,3.30
2023-03-04T11:04:00.499Z,3.30
2023-03-04T11:05:10.322Z,3.30
2023-03-04T11:06:10.320Z,3.30
2023-03-04T11:07:00.402Z,3.30
2023-03-04T11:08:00.415Z,3.30
2023-03-04T11:09:00.428Z,3.30
2023-03-04T11:10:10.322Z,3.30
2023-03-04T11:11:00.756Z,3.30
2023-03-04T11:12:01.498Z,3.30
2023-03-04T11:13:07.896Z,3.30
2023-03-04T11:14:03.046Z,3.80
2023-03-04T11:15:00.812Z,3.80
2023-03-04T11:16:01.766Z,3.80
2023-03-04T11:17:02.360Z,3.80
2023-03-04T11:18:03.544Z,3.80
2023-03-04T11:19:03.787Z,3.80
2023-03-04T11:20:09.401Z,3.80
2023-03-04T11:21:00.429Z,3.80
2023-03-04T11:22:00.579Z,3.80
2023-03-04T11:23:04.662Z,3.80
2023-03-04T11:24:06.252Z,3.80
2023-03-04T11:25:04.413Z,3.80
2023-03-04T11:26:02.245Z,3.80
2023-03-04T11:27:00.395Z,3.80
2023-03-04T11:28:02.076Z,3.80
2023-03-04T11:29:06.537Z,3.80
2023-03-04T11:30:10.322Z,3.80
2023-03-04T11:31:02.567Z,3.80
2023-03-04T11:32:05.159Z,3.80
2023-03-04T11:33:08.991Z,3.80
2023-03-04T11:34:02.139Z,3.80
2023-03-04T11:35:05.268Z,3.80
2023-03-04T11:36:00.387Z,3.80
2023-03-04T11:37:05.688Z,3.80
2023-03-04T11:38:04.920Z,3.80
2023-03-04T11:39:02.402Z,3.80
2023-03-04T11:40:00.402Z,3.80
2023-03-04T11:41:05.236Z,3.80
2023-03-04T11:42:03.784Z,3.80
2023-03-04T11:43:05.049Z,3.80
2023-03-04T11:44:00.860Z,3.90
2023-03-04T11:45:00.530Z,3.90
2023-03-04T11:46:01.459Z,3.90
2023-03-04T11:47:10.334Z,3.90
2023-03-04T11:48:01.440Z,3.90
2023-03-04T11:49:08.123Z,3.90
2023-03-04T11:50:10.365Z,3.90
2023-03-04T11:51:12.829Z,3.90
2023-03-04T11:52:00.428Z,3.90
2023-03-04T11:53:06.678Z,3.90
2023-03-04T11:54:07.776Z,3.90
2023-03-04T11:55:10.344Z,3.90
2023-03-04T11:56:09.343Z,3.90
2023-03-04T11:57:07.770Z,3.90
2023-03-04T11:58:07.669Z,3.90
2023-03-04T11:59:07.138Z,3.90
2023-03-04T12:00:10.354Z,3.90
2023-03-04T12:01:07.069Z,3.90
2023-03-04T12:02:09.789Z,3.90
2023-03-04T12:03:12.736Z,3.90
2023-03-04T12:04:10.541Z,3.90
2023-03-04T12:05:10.342Z,3.90
2023-03-04T12:06:05.919Z,3.90
2023-03-04T12:07:10.468Z,3.90
2023-03-04T12:08:00.417Z,3.90
2023-03-04T12:09:10.347Z,3.90
2023-03-04T12:10:04.394Z,3.90
2023-03-04T12:11:07.918Z,3.90
2023-03-04T12:12:07.812Z,3.90
2023-03-04T12:13:07.772Z,3.90
2023-03-04T12:14:07.399Z,3.50
2023-03-04T12:15:09.079Z,3.50
2023-03-04T12:16:03.729Z,3.50
2023-03-04T12:17:00.424Z,3.50
2023-03-04T12:18:10.365Z,3.50
2023-03-04T12:19:00.430Z,3.50
2023-03-04T12:20:06.079Z,3.50
2023-03-04T12:21:07.218Z,3.50
2023-03-04T12:22:03.699Z,3.50
2023-03-04T12:23:01.436Z,3.50
2023-03-04T12:24:10.346Z,3.50
2023-03-04T12:25:10.372Z,3.50
2023-03-04T12:26:01.433Z,3.50
2023-03-04T12:27:00.433Z,3.50
2023-03-04T12:28:01.435Z,3.50
2023-03-04T12:29:01.440Z,3.50
2023-03-04T12:30:04.985Z,3.50
2023-03-04T12:31:06.586Z,3.50
2023-03-04T12:32:10.364Z,3.50
2023-03-04T12:33:06.606Z,3.50
2023-03-04T12:34:07.741Z,3.50
2023-03-04T12:35:10.372Z,3.50
2023-03-04T12:36:09.998Z,3.50
2023-03-04T12:37:01.478Z,3.50
2023-03-04T12:38:10.345Z,3.50
2023-03-04T12:39:10.352Z,3.50
2023-03-04T12:40:10.337Z,3.50
2023-03-04T12:41:05.970Z,3.50
2023-03-04T12:42:07.043Z,3.50
2023-03-04T12:43:01.442Z,3.50
2023-03-04T12:44:09.051Z,4.60
2023-03-04T12:45:01.461Z,4.60
2023-03-04T12:46:10.268Z,4.60
2023-03-04T12:47:10.346Z,4.60
2023-03-04T12:48:05.768Z,4.60
2023-03-04T12:49:10.344Z,4.60
2023-03-04T12:50:00.433Z,4.60
2023-03-04T12:51:08.626Z,4.60
2023-03-04T12:52:10.341Z,4.60
2023-03-04T12:53:03.693Z,4.60
2023-03-04T12:54:03.700Z,4.60
2023-03-04T12:55:02.921Z,4.60
2023-03-04T12:56:02.025Z,4.60
2023-03-04T12:57:03.511Z,4.60
2023-03-04T12:58:00.490Z,4.60
2023-03-04T12:59:00.564Z,4.60
2023-03-04T13:00:10.360Z,4.60
2023-03-04T13:01:05.773Z,4.60
2023-03-04T13:02:10.376Z,4.60
2023-03-04T13:03:00.944Z,4.60
2023-03-04T13:04:10.355Z,4.60
2023-03-04T13:05:10.354Z,4.60
2023-03-04T13:06:05.704Z,4.60
2023-03-04T13:07:00.411Z,4.60
2023-03-04T13:08:10.280Z,4.60
2023-03-04T13:09:07.820Z,4.60
2023-03-04T13:10:06.759Z,4.60
2023-03-04T13:11:01.646Z,4.60
2023-03-04T13:12:00.428Z,4.60
2023-03-04T13:13:01.404Z,4.60
2023-03-04T13:14:03.694Z,3.40
2023-03-04T13:15:08.033Z,3.40
2023-03-04T13:16:02.737Z,3.40
2023-03-04T13:17:10.353Z,3.40
2023-03-04T13:18:01.827Z,3.40